Time;durP1;ratioP1;P1;durP2;ratioP2;P2;SDS_P1;SDS_P2;PMS_P1;PMS_P2;Temp;Humidity;BMP_temperature;BMP_pressure;BME280_temperature;BME280_humidity;BME280_pressure;Samples;Min_cycle;Max_cycle;Signal;HPM_P1;HPM_P2
2022/03/17 00:02:20;;;;;;;20.80;16.80;;;;;;;9.57;100.00;99684.50;4937412;28;20206;-79
2022/03/17 00:04:48;;;;;;;22.13;16.20;;;;;;;9.66;100.00;99688.44;4935087;28;20225;-79
2022/03/17 00:07:17;;;;;;;23.63;16.47;;;;;;;9.65;100.00;99687.59;4937988;28;20208;-78
2022/03/17 00:09:50;;;;;;;22.83;17.80;;;;;;;9.64;100.00;99693.78;4929344;29;20204;-79
2022/03/17 00:12:19;;;;;;;26.30;20.40;;;;;;;9.85;100.00;99699.78;4971327;28;20195;-78
2022/03/17 00:14:54;;;;;;;22.93;18.30;;;;;;;9.78;100.00;99694.88;4953407;28;20196;-79
2022/03/17 00:17:26;;;;;;;27.03;18.87;;;;;;;9.79;100.00;99684.22;4824300;29;20201;-79
2022/03/17 00:19:55;;;;;;;23.93;18.00;;;;;;;9.84;100.00;99695.41;4817314;29;20209;-79
2022/03/17 00:22:24;;;;;;;25.03;18.50;;;;;;;9.95;100.00;99702.81;4824075;29;20348;-79
2022/03/17 00:24:55;;;;;;;26.47;18.23;;;;;;;9.93;100.00;99689.63;4820180;29;20241;-78
2022/03/17 00:27:24;;;;;;;23.20;18.67;;;;;;;9.84;100.00;99698.03;4734516;30;20207;-78
2022/03/17 00:29:54;;;;;;;23.83;18.00;;;;;;;9.93;100.00;99697.56;4736447;30;20223;-78
2022/03/17 00:32:23;;;;;;;24.17;18.53;;;;;;;9.80;100.00;99693.00;4733708;30;20619;-78
2022/03/17 00:37:40;;;;;;;25.47;19.20;;;;;;;9.86;100.00;99700.63;4809702;29;20287;-79
2022/03/17 00:40:13;;;;;;;22.73;18.17;;;;;;;9.81;100.00;99692.94;4822874;29;20261;-78
2022/03/17 00:42:41;;;;;;;24.10;19.17;;;;;;;9.75;100.00;99682.69;4836410;29;20301;-78
2022/03/17 00:45:12;;;;;;;22.93;19.50;;;;;;;9.87;100.00;99689.97;4931505;28;20222;-79
2022/03/17 00:47:41;;;;;;;26.07;19.60;;;;;;;9.75;100.00;99693.25;4990041;28;20210;-79
2022/03/17 00:50:12;;;;;;;24.37;18.47;;;;;;;9.70;100.00;99685.56;4994442;28;20259;-78
2022/03/17 00:52:41;;;;;;;25.97;19.53;;;;;;;9.70;100.00;99690.00;4989879;28;20198;-79
2022/03/17 00:55:10;;;;;;;25.07;19.17;;;;;;;9.68;100.00;99695.34;4950865;28;20212;-79
2022/03/17 00:57:42;;;;;;;28.03;19.63;;;;;;;9.78;100.00;99698.38;4948630;28;20243;-79
2022/03/17 01:00:15;;;;;;;25.20;20.07;;;;;;;9.67;100.00;99693.66;4946835;28;20208;-78
2022/03/17 01:02:45;;;;;;;25.20;19.20;;;;;;;9.68;100.00;99703.28;4947600;28;20197;-79
2022/03/17 01:05:13;;;;;;;25.27;19.67;;;;;;;9.58;100.00;99687.97;5030436;28;20245;-79
2022/03/17 01:07:42;;;;;;;27.23;20.47;;;;;;;9.70;100.00;99687.34;5030882;28;20197;-78
2022/03/17 01:10:15;;;;;;;28.00;20.93;;;;;;;9.65;100.00;99684.06;5037927;28;20266;-79
2022/03/17 01:12:46;;;;;;;27.00;20.07;;;;;;;9.69;100.00;99681.19;5037797;28;20190;-78
2022/03/17 01:15:17;;;;;;;26.87;20.43;;;;;;;9.62;100.00;99679.81;5027769;28;20209;-79
2022/03/17 01:17:46;;;;;;;29.37;19.57;;;;;;;9.69;100.00;99686.50;5029704;28;20198;-79
2022/03/17 01:20:14;;;;;;;24.37;20.30;;;;;;;9.76;100.00;99684.38;5026621;28;20194;-78
2022/03/17 01:22:43;;;;;;;24.00;19.73;;;;;;;9.70;100.00;99685.56;5008547;28;20201;-79
2022/03/17 01:25:11;;;;;;;25.07;20.23;;;;;;;9.65;100.00;99690.25;4947548;28;20232;-79
2022/03/17 01:27:40;;;;;;;26.30;20.47;;;;;;;9.67;100.00;99683.06;5015277;28;20677;-79
2022/03/17 01:30:12;;;;;;;27.60;20.63;;;;;;;9.72;100.00;99683.66;4935010;28;20209;-79
2022/03/17 01:32:43;;;;;;;26.33;20.73;;;;;;;9.65;100.00;99679.66;4943089;28;20206;-78
2022/03/17 01:35:19;;;;;;;28.00;20.63;;;;;;;9.54;100.00;99678.47;4946911;28;20197;-79
2022/03/17 01:37:48;;;;;;;26.40;21.07;;;;;;;9.63;100.00;99676.22;4953334;28;20235;-78
2022/03/17 01:40:16;;;;;;;28.90;21.17;;;;;;;9.64;100.00;99675.28;4986375;28;20264;-78
2022/03/17 01:42:47;;;;;;;27.83;21.57;;;;;;;9.68;100.00;99673.34;5010850;28;20218;-78
2022/03/17 01:45:16;;;;;;;26.87;21.23;;;;;;;9.71;100.00;99671.38;5007193;28;20202;-79
2022/03/17 01:47:48;;;;;;;29.27;21.33;;;;;;;9.68;100.00;99665.41;5007518;28;20195;-78
2022/03/17 01:50:18;;;;;;;27.37;21.97;;;;;;;9.66;100.00;99669.94;5009894;28;20234;-79
2022/03/17 01:52:47;;;;;;;27.00;20.97;;;;;;;9.70;100.00;99677.63;4979180;28;20190;-78
2022/03/17 01:55:17;;;;;;;26.93;21.63;;;;;;;9.58;100.00;99667.69;5005883;28;20703;-79
2022/03/17 01:57:46;;;;;;;28.07;21.50;;;;;;;9.61;100.00;99677.25;5008250;28;20203;-79
2022/03/17 02:00:17;;;;;;;28.87;21.93;;;;;;;9.58;100.00;99675.63;5000814;28;20203;-79
2022/03/17 02:02:54;;;;;;;28.80;22.53;;;;;;;9.53;100.00;99671.47;4981926;28;20659;-78
2022/03/17 02:05:23;;;;;;;28.67;21.93;;;;;;;9.64;100.00;99669.13;4980807;28;20259;-78
2022/03/17 02:07:52;;;;;;;31.80;22.57;;;;;;;9.58;100.00;99680.06;4982008;28;20206;-78
2022/03/17 02:10:23;;;;;;;26.67;21.60;;;;;;;9.62;100.00;99682.44;4978438;28;20690;-78
2022/03/17 02:13:09;;;;;;;29.47;22.67;;;;;;;9.51;100.00;99683.94;4971670;28;20204;-78
2022/03/17 02:15:43;;;;;;;28.30;22.13;;;;;;;9.54;100.00;99668.75;4981899;28;20196;-78
2022/03/17 02:18:16;;;;;;;31.67;24.20;;;;;;;9.50;100.00;99684.88;4972118;28;20200;-78
2022/03/17 02:20:45;;;;;;;27.50;21.47;;;;;;;9.47;100.00;99688.53;4972486;28;20196;-78
2022/03/17 02:26:06;;;;;;;28.33;22.17;;;;;;;9.55;100.00;99690.75;4978581;28;20216;-78
2022/03/17 02:28:35;;;;;;;28.20;22.30;;;;;;;9.54;100.00;99673.19;4977579;28;20203;-78
2022/03/17 02:31:06;;;;;;;31.20;22.00;;;;;;;9.57;100.00;99684.50;4981749;28;20196;-77
2022/03/17 02:33:40;;;;;;;29.70;23.03;;;;;;;9.41;100.00;99688.84;5012091;28;20187;-79
2022/03/17 02:36:09;;;;;;;29.63;22.40;;;;;;;9.55;100.00;99680.19;5009013;28;20194;-78
2022/03/17 02:38:40;;;;;;;28.80;22.93;;;;;;;9.49;100.00;99667.31;5010399;28;20362;-78
2022/03/17 02:41:09;;;;;;;28.67;22.90;;;;;;;9.52;100.00;99672.41;5011168;28;20194;-78
2022/03/17 02:43:39;;;;;;;29.77;22.67;;;;;;;9.44;100.00;99680.75;5009227;28;20198;-79
2022/03/17 02:46:07;;;;;;;27.63;21.97;;;;;;;9.42;100.00;99672.88;4970342;28;20223;-78
2022/03/17 02:48:41;;;;;;;31.87;23.57;;;;;;;9.51;100.00;99676.84;4972599;28;20262;-81
2022/03/17 02:51:10;;;;;;;28.23;22.80;;;;;;;9.44;100.00;99683.38;4938198;28;20203;-78
2022/03/17 02:53:44;;;;;;;31.77;23.70;;;;;;;9.46;100.00;99669.19;4969901;28;20196;-78
2022/03/17 02:56:13;;;;;;;29.57;23.40;;;;;;;9.42;100.00;99672.88;4971780;28;20196;-78
2022/03/17 02:58:44;;;;;;;29.93;23.57;;;;;;;9.43;100.00;99679.88;4965137;28;20215;-79
2022/03/17 03:01:13;;;;;;;31.47;23.87;;;;;;;9.40;100.00;99677.41;4968861;28;20204;-79
2022/03/17 03:03:44;;;;;;;29.23;22.90;;;;;;;9.38;100.00;99676.63;4972553;28;20211;-79
2022/03/17 03:06:12;;;;;;;30.30;23.90;;;;;;;9.39;100.00;99681.00;5031075;28;20268;-79
2022/03/17 03:08:43;;;;;;;29.97;23.43;;;;;;;9.36;100.00;99677.63;5010434;28;20206;-78
2022/03/17 03:11:14;;;;;;;28.83;22.77;;;;;;;9.45;100.00;99671.88;4989299;28;20302;-79
2022/03/17 03:13:47;;;;;;;29.30;22.13;;;;;;;9.36;100.00;99657.34;5016825;28;20195;-78
2022/03/17 03:16:18;;;;;;;29.67;24.00;;;;;;;9.47;100.00;99662.09;4980786;28;20206;-78
2022/03/17 03:18:47;;;;;;;29.07;24.00;;;;;;;9.36;100.00;99659.13;4980761;28;20208;-79
2022/03/17 03:21:16;;;;;;;30.57;24.47;;;;;;;9.41;100.00;99662.41;4985500;28;20279;-78
2022/03/17 03:23:47;;;;;;;32.10;24.00;;;;;;;9.30;100.00;99657.66;4980701;28;20192;-79
2022/03/17 03:26:16;;;;;;;30.10;23.23;;;;;;;9.21;100.00;99663.41;4982272;28;20246;-79
2022/03/17 03:28:44;;;;;;;29.17;23.33;;;;;;;9.15;100.00;99661.91;4980239;28;20207;-78
2022/03/17 03:31:13;;;;;;;32.87;24.60;;;;;;;9.30;100.00;99659.44;4983174;28;20210;-79
2022/03/17 03:33:43;;;;;;;30.93;23.90;;;;;;;9.25;100.00;99662.31;4987109;28;20196;-78
2022/03/17 03:38:59;;;;;;;32.20;24.30;;;;;;;9.30;100.00;99665.59;4975124;28;20224;-79
2022/03/17 03:41:28;;;;;;;29.50;23.83;;;;;;;9.33;100.00;99667.22;4984381;28;20215;-78
2022/03/17 03:43:58;;;;;;;30.73;24.07;;;;;;;9.34;100.00;99663.63;4983632;28;20271;-78
2022/03/17 03:46:29;;;;;;;29.37;23.43;;;;;;;9.36;100.00;99672.34;5021681;28;20196;-79
2022/03/17 03:48:57;;;;;;;32.30;24.97;;;;;;;9.34;100.00;99677.72;5008350;28;20196;-78
2022/03/17 03:51:26;;;;;;;30.87;23.93;;;;;;;9.30;100.00;99673.53;4974791;28;20212;-79
2022/03/17 03:56:41;;;;;;;29.83;23.10;;;;;;;9.39;100.00;99693.34;4973230;28;20200;-78
2022/03/17 03:59:11;;;;;;;29.37;23.30;;;;;;;9.23;100.00;99695.91;4979793;28;20210;-78
2022/03/17 04:01:42;;;;;;;29.87;23.53;;;;;;;9.23;100.00;99711.75;4983932;28;20195;-79
2022/03/17 04:04:13;;;;;;;31.30;23.53;;;;;;;9.14;100.00;99720.13;4980555;28;20615;-78
2022/03/17 04:06:45;;;;;;;30.57;23.53;;;;;;;9.26;100.00;99721.31;4984338;28;20222;-79
2022/03/17 04:09:14;;;;;;;32.93;24.30;;;;;;;9.26;100.00;99701.03;4980358;28;20230;-78
2022/03/17 04:11:46;;;;;;;27.97;23.50;;;;;;;9.39;100.00;99696.00;4985302;28;20218;-79
2022/03/17 04:14:16;;;;;;;29.57;23.83;;;;;;;9.39;100.00;99699.50;4987268;28;20199;-79
2022/03/17 04:16:47;;;;;;;29.83;23.17;;;;;;;9.33;100.00;99705.06;5033574;28;20233;-79
2022/03/17 04:19:18;;;;;;;29.80;24.00;;;;;;;9.26;100.00;99713.38;5026642;28;20220;-79
2022/03/17 04:21:48;;;;;;;30.43;24.13;;;;;;;9.26;100.00;99714.22;5033101;28;20225;-78
2022/03/17 04:24:21;;;;;;;30.07;23.40;;;;;;;9.29;100.00;99718.53;4994214;28;20222;-78
2022/03/17 04:26:52;;;;;;;30.63;24.80;;;;;;;9.21;100.00;99720.69;4961680;28;20681;-79
2022/03/17 04:29:21;;;;;;;31.63;23.73;;;;;;;9.20;100.00;99721.63;4994533;28;20207;-79
2022/03/17 04:31:50;;;;;;;29.57;22.90;;;;;;;9.28;100.00;99722.97;4994432;28;20203;-79
2022/03/17 04:34:20;;;;;;;29.67;22.63;;;;;;;9.29;100.00;99734.41;4994562;28;20229;-78
2022/03/17 04:36:48;;;;;;;32.80;24.93;;;;;;;9.23;100.00;99730.25;5013358;28;20206;-79
2022/03/17 04:39:17;;;;;;;29.00;23.17;;;;;;;9.29;100.00;99723.81;5013103;28;20229;-79
2022/03/17 04:41:45;;;;;;;29.87;24.40;;;;;;;9.26;100.00;99714.22;5012289;28;20202;-79
2022/03/17 04:44:15;;;;;;;33.17;24.47;;;;;;;9.24;100.00;99720.53;5013859;28;20263;-79
2022/03/17 04:46:46;;;;;;;29.70;23.67;;;;;;;9.16;100.00;99721.75;4954138;28;20223;-79
2022/03/17 04:49:15;;;;;;;29.70;24.17;;;;;;;9.18;100.00;99725.22;4974017;28;20712;-79
2022/03/17 04:51:44;;;;;;;31.70;24.50;;;;;;;9.12;100.00;99714.06;4991271;28;20191;-79
2022/03/17 04:54:13;;;;;;;31.00;23.57;;;;;;;9.09;100.00;99728.31;4987471;28;20250;-79
2022/03/17 04:56:43;;;;;;;32.07;24.63;;;;;;;9.16;100.00;99726.19;4986387;28;20266;-78
2022/03/17 04:59:12;;;;;;;30.37;24.23;;;;;;;9.14;100.00;99728.91;4912422;28;20202;-79
2022/03/17 05:01:42;;;;;;;31.97;24.10;;;;;;;9.09;100.00;99738.03;4991884;28;20199;-78
2022/03/17 05:04:14;;;;;;;32.50;24.93;;;;;;;9.06;100.00;99739.00;4986751;28;20271;-78
2022/03/17 05:06:44;;;;;;;32.60;25.43;;;;;;;9.11;100.00;99742.28;4973070;28;20199;-78
2022/03/17 05:09:14;;;;;;;35.27;26.23;;;;;;;9.11;100.00;99747.56;4974988;28;20231;-79
2022/03/17 05:11:45;;;;;;;31.87;24.60;;;;;;;9.07;100.00;99747.78;4978447;28;20211;-79
2022/03/17 05:14:13;;;;;;;30.30;24.93;;;;;;;9.14;100.00;99755.34;4979300;28;20204;-79
2022/03/17 05:16:42;;;;;;;31.03;24.33;;;;;;;9.20;100.00;99753.34;4981973;28;20196;-79
2022/03/17 05:19:11;;;;;;;32.00;25.37;;;;;;;9.16;100.00;99757.91;4984334;28;20208;-78
2022/03/17 05:21:41;;;;;;;33.27;24.80;;;;;;;9.13;100.00;99744.84;4985342;28;20631;-79
2022/03/17 05:24:09;;;;;;;30.80;23.63;;;;;;;9.20;100.00;99734.84;4982968;28;20206;-78
2022/03/17 05:26:38;;;;;;;31.63;23.63;;;;;;;9.11;100.00;99747.56;4981883;28;20211;-79
2022/03/17 05:29:06;;;;;;;31.33;24.10;;;;;;;9.20;100.00;99761.28;4982701;28;20224;-78
2022/03/17 05:31:36;;;;;;;32.87;25.27;;;;;;;9.18;100.00;99769.28;4981515;28;20211;-79
2022/03/17 05:34:06;;;;;;;31.50;25.57;;;;;;;9.15;100.00;99777.34;4972598;28;20218;-79
2022/03/17 05:36:35;;;;;;;35.13;25.53;;;;;;;9.01;100.00;99780.66;4985056;28;20203;-79
2022/03/17 05:39:03;;;;;;;33.13;26.07;;;;;;;9.00;100.00;99786.88;4982200;28;20690;-79
2022/03/17 05:41:31;;;;;;;31.27;24.83;;;;;;;9.01;100.00;99793.88;4971408;28;20239;-78
2022/03/17 05:44:02;;;;;;;29.07;24.40;;;;;;;9.09;100.00;99790.88;4982126;28;20256;-79
2022/03/17 05:46:30;;;;;;;32.67;26.43;;;;;;;9.11;100.00;99791.66;4979965;28;20223;-79
2022/03/17 05:49:00;;;;;;;35.40;26.33;;;;;;;9.20;100.00;99788.56;4980907;28;20311;-79
2022/03/17 05:51:30;;;;;;;32.43;24.97;;;;;;;9.25;100.00;99799.75;4982624;28;20202;-78
2022/03/17 05:53:58;;;;;;;30.77;24.13;;;;;;;9.10;100.00;99795.22;4985290;28;20196;-78
2022/03/17 05:56:26;;;;;;;31.57;24.33;;;;;;;9.29;100.00;99800.47;5019804;28;20783;-79
2022/03/17 05:58:55;;;;;;;32.33;24.90;;;;;;;9.21;100.00;99792.06;4983708;28;20203;-79
2022/03/17 06:01:29;;;;;;;29.60;23.30;;;;;;;9.10;100.00;99798.72;4982896;28;20207;-79
2022/03/17 06:03:57;;;;;;;33.37;24.23;;;;;;;9.13;100.00;99806.50;4984422;28;20203;-79
2022/03/17 06:06:25;;;;;;;31.23;24.23;;;;;;;9.00;100.00;99810.66;4980007;28;20224;-79
2022/03/17 06:08:59;;;;;;;33.63;24.27;;;;;;;9.17;100.00;99815.16;4982759;28;20224;-79
2022/03/17 06:11:28;;;;;;;32.27;24.87;;;;;;;9.18;100.00;99807.16;5018115;28;20196;-79
2022/03/17 06:13:59;;;;;;;30.13;24.20;;;;;;;9.20;100.00;99814.16;4975892;28;20208;-78
2022/03/17 06:16:28;;;;;;;31.00;25.03;;;;;;;9.12;100.00;99812.72;4982095;28;20207;-79
2022/03/17 06:18:56;;;;;;;31.03;24.17;;;;;;;9.15;100.00;99811.69;5019197;28;20208;-79
2022/03/17 06:21:25;;;;;;;30.97;24.10;;;;;;;9.10;100.00;99824.28;4982964;28;20196;-79
2022/03/17 06:23:56;;;;;;;32.27;24.43;;;;;;;9.07;100.00;99822.66;4980934;28;20200;-79
2022/03/17 06:26:24;;;;;;;29.63;23.57;;;;;;;9.05;100.00;99828.91;4970753;28;20207;-79
2022/03/17 06:28:53;;;;;;;30.70;24.90;;;;;;;9.08;100.00;99832.31;4971877;28;20330;-79
2022/03/17 06:31:21;;;;;;;30.07;24.03;;;;;;;9.10;100.00;99840.16;4984510;28;20198;-79
2022/03/17 06:33:49;;;;;;;32.83;24.77;;;;;;;9.17;100.00;99836.28;5020613;28;20249;-79
2022/03/17 06:36:18;;;;;;;37.03;25.23;;;;;;;9.21;100.00;99839.63;4978010;28;20204;-79
2022/03/17 06:38:46;;;;;;;32.07;25.17;;;;;;;9.19;100.00;99850.28;4984412;28;20711;-79
2022/03/17 06:41:17;;;;;;;29.67;24.13;;;;;;;9.18;100.00;99856.50;4983123;28;20211;-79
2022/03/17 06:43:46;;;;;;;30.97;24.53;;;;;;;9.12;100.00;99867.34;4981144;28;20207;-79
2022/03/17 06:46:15;;;;;;;32.80;24.87;;;;;;;9.12;100.00;99860.28;5036649;28;20262;-79
2022/03/17 06:48:43;;;;;;;31.97;24.70;;;;;;;9.09;100.00;99870.16;5007836;28;21171;-79
2022/03/17 06:51:12;;;;;;;35.27;24.73;;;;;;;9.18;100.00;99875.00;5008564;28;20194;-79
2022/03/17 06:53:41;;;;;;;30.97;24.50;;;;;;;9.08;100.00;99873.72;5008650;28;20199;-79
2022/03/17 06:56:09;;;;;;;31.90;24.40;;;;;;;9.07;100.00;99875.50;5011325;28;20198;-79
2022/03/17 06:58:39;;;;;;;32.57;25.03;;;;;;;9.20;100.00;99877.56;5009734;28;20245;-79
2022/03/17 07:01:07;;;;;;;31.90;24.63;;;;;;;9.28;100.00;99886.00;5015394;28;20206;-80
2022/03/17 07:03:39;;;;;;;33.17;25.23;;;;;;;9.28;100.00;99891.28;5015232;28;20194;-79
2022/03/17 07:06:07;;;;;;;35.87;27.97;;;;;;;9.25;100.00;99886.13;5010785;28;20194;-79
2022/03/17 07:08:36;;;;;;;33.93;26.87;;;;;;;9.18;100.00;99897.00;5015388;28;20218;-79
2022/03/17 07:11:04;;;;;;;31.77;25.37;;;;;;;9.10;100.00;99896.50;5010896;28;20201;-79
2022/03/17 07:13:33;;;;;;;35.00;25.97;;;;;;;9.13;100.00;99911.34;4992630;28;20242;-79
2022/03/17 07:16:03;;;;;;;32.23;25.77;;;;;;;9.30;100.00;99903.50;4974794;28;20191;-79
2022/03/17 07:18:32;;;;;;;34.03;26.07;;;;;;;9.36;100.00;99903.22;5012901;28;20202;-79
2022/03/17 07:21:01;;;;;;;33.47;25.90;;;;;;;9.35;100.00;99897.97;5004916;28;20198;-79
2022/03/17 07:23:29;;;;;;;33.70;26.70;;;;;;;9.17;100.00;99910.31;4953109;28;20193;-78
2022/03/17 07:25:59;;;;;;;34.20;25.87;;;;;;;9.43;100.00;99901.97;4952697;28;20212;-79
2022/03/17 07:28:28;;;;;;;34.87;25.20;;;;;;;9.40;100.00;99910.06;4953848;28;20197;-79
2022/03/17 07:30:57;;;;;;;33.67;25.53;;;;;;;9.54;100.00;99912.06;4951972;28;20247;-79
2022/03/17 07:33:27;;;;;;;30.23;23.37;;;;;;;9.47;100.00;99931.81;4951126;28;20244;-79
2022/03/17 07:35:55;;;;;;;32.93;24.70;;;;;;;9.64;100.00;99921.25;4976628;28;20190;-79
2022/03/17 07:38:25;;;;;;;30.63;24.93;;;;;;;9.54;100.00;99919.97;4990028;28;20234;-78
2022/03/17 07:40:53;;;;;;;34.40;24.60;;;;;;;9.55;100.00;99931.41;4997908;28;20200;-79
2022/03/17 07:43:25;;;;;;;31.47;25.00;;;;;;;9.49;100.00;99937.03;4977185;28;20204;-79
2022/03/17 07:45:54;;;;;;;30.93;24.73;;;;;;;9.54;100.00;99937.66;4967198;28;20199;-79
2022/03/17 07:48:24;;;;;;;34.00;25.97;;;;;;;9.57;100.00;99945.44;4948955;28;20204;-78
2022/03/17 07:50:56;;;;;;;30.47;24.60;;;;;;;9.65;100.00;99936.22;4969748;28;20250;-79
2022/03/17 07:53:24;;;;;;;32.80;25.27;;;;;;;9.53;100.00;99939.44;4954743;28;20274;-79
2022/03/17 07:55:55;;;;;;;33.23;26.47;;;;;;;9.49;100.00;99944.94;4953106;28;20200;-78
2022/03/17 07:58:26;;;;;;;32.57;25.27;;;;;;;9.67;100.00;99944.94;4954596;28;20242;-78
2022/03/17 08:00:55;;;;;;;31.83;24.80;;;;;;;9.80;100.00;99941.69;4951935;29;20617;-78
2022/03/17 08:03:24;;;;;;;30.67;24.50;;;;;;;9.70;100.00;99943.94;4953063;28;20257;-78
2022/03/17 08:05:52;;;;;;;31.53;25.30;;;;;;;9.78;100.00;99952.38;4952260;28;20201;-78
2022/03/17 08:08:22;;;;;;;31.50;24.97;;;;;;;9.73;100.00;99944.63;4949823;28;20200;-79
2022/03/17 08:10:50;;;;;;;34.10;25.87;;;;;;;9.67;100.00;99942.28;4952029;28;20224;-79
2022/03/17 08:13:18;;;;;;;33.33;25.37;;;;;;;9.90;100.00;99938.53;4954571;28;20208;-79
2022/03/17 08:15:47;;;;;;;29.47;23.87;;;;;;;9.89;100.00;99951.84;4950336;28;20270;-79
2022/03/17 08:18:16;;;;;;;29.40;24.33;;;;;;;9.83;100.00;99942.41;4956547;28;20242;-79
2022/03/17 08:20:44;;;;;;;33.23;25.43;;;;;;;9.83;100.00;99954.78;4960262;28;20287;-79
2022/03/17 08:23:19;;;;;;;31.33;25.33;;;;;;;9.90;100.00;99956.19;4953228;28;20196;-79
2022/03/17 08:25:50;;;;;;;32.37;24.67;;;;;;;9.89;100.00;99965.94;4952916;28;20212;-79
2022/03/17 08:28:19;;;;;;;31.70;24.50;;;;;;;9.88;100.00;99976.59;4954578;28;20234;-79
2022/03/17 08:30:48;;;;;;;32.40;25.37;;;;;;;10.04;100.00;99977.56;4953842;28;20223;-79
2022/03/17 08:33:19;;;;;;;35.07;25.67;;;;;;;10.07;100.00;99987.16;4947113;28;20211;-78
2022/03/17 08:35:47;;;;;;;33.33;25.20;;;;;;;9.75;100.00;99994.84;4953107;28;20204;-79
2022/03/17 08:38:16;;;;;;;32.37;25.03;;;;;;;9.70;100.00;100002.13;4959339;28;20232;-79
2022/03/17 08:40:45;;;;;;;32.50;26.00;;;;;;;9.74;100.00;99999.25;4979331;28;20199;-79
2022/03/17 08:43:15;;;;;;;32.80;25.77;;;;;;;9.83;100.00;99994.47;4984105;28;20241;-79
2022/03/17 08:51:12;;;;;;;36.73;25.80;;;;;;;9.89;100.00;100018.00;4961388;28;20239;-79
2022/03/17 08:53:41;;;;;;;32.00;25.43;;;;;;;9.66;100.00;100017.28;4983887;28;20195;-79
2022/03/17 08:56:09;;;;;;;31.87;25.73;;;;;;;9.96;100.00;100004.41;4987519;28;20203;-78
2022/03/17 08:58:39;;;;;;;32.97;25.97;;;;;;;9.83;100.00;100019.13;4988562;28;20208;-79
2022/03/17 09:01:08;;;;;;;31.87;24.77;;;;;;;9.91;100.00;100014.34;4981233;28;20245;-78
2022/03/17 09:03:36;;;;;;;33.60;25.27;;;;;;;10.04;100.00;100028.72;4983739;28;20208;-79
2022/03/17 09:06:04;;;;;;;34.13;26.13;;;;;;;9.87;100.00;100027.81;4982264;28;20199;-78
2022/03/17 09:08:32;;;;;;;31.43;25.73;;;;;;;9.81;100.00;100028.94;4983527;28;20220;-78
2022/03/17 09:11:01;;;;;;;33.73;26.80;;;;;;;9.80;100.00;100037.81;4978831;28;20228;-78
2022/03/17 09:13:30;;;;;;;32.67;26.33;;;;;;;9.93;100.00;100035.44;4983038;28;20245;-78
2022/03/17 09:15:59;;;;;;;35.43;26.60;;;;;;;9.69;100.00;100046.25;4979994;28;20207;-78
2022/03/17 09:18:28;;;;;;;35.70;26.73;;;;;;;9.82;100.00;100045.66;4978143;28;20255;-78
2022/03/17 09:20:59;;;;;;;35.63;27.00;;;;;;;9.92;100.00;100050.44;4977649;28;20204;-79
2022/03/17 09:23:30;;;;;;;48.47;35.67;;;;;;;9.87;100.00;100054.25;4981322;28;20208;-79
2022/03/17 09:26:01;;;;;;;45.83;32.03;;;;;;;9.92;100.00;100050.44;4975007;28;20192;-78
2022/03/17 09:28:30;;;;;;;40.03;32.07;;;;;;;10.03;100.00;100052.59;4981970;28;20207;-79
2022/03/17 09:31:01;;;;;;;69.67;47.90;;;;;;;9.93;100.00;100053.94;4983256;28;20224;-79
2022/03/17 09:33:30;;;;;;;53.77;39.43;;;;;;;9.84;100.00;100054.38;4983566;28;20187;-79
2022/03/17 09:36:05;;;;;;;37.07;29.67;;;;;;;10.01;100.00;100051.81;4982811;28;20257;-79
2022/03/17 09:38:42;;;;;;;36.83;29.10;;;;;;;9.98;100.00;100050.16;4989498;28;20313;-79
2022/03/17 09:41:35;;;;;;;53.97;41.03;;;;;;;9.69;100.00;100054.19;4997527;28;20202;-78
2022/03/17 09:44:08;;;;;;;39.57;29.50;;;;;;;9.63;100.00;100062.38;5008869;28;20207;-79
2022/03/17 09:46:45;;;;;;;34.97;28.20;;;;;;;9.61;100.00;100061.59;5002698;28;20199;-77
2022/03/17 09:49:13;;;;;;;34.80;28.17;;;;;;;9.49;100.00;100066.59;5002780;28;20203;-78
2022/03/17 09:51:43;;;;;;;37.43;29.63;;;;;;;9.50;100.00;100065.66;4991373;28;20234;-78
2022/03/17 09:54:11;;;;;;;38.83;29.80;;;;;;;9.51;100.00;100067.38;5002702;28;20204;-78
2022/03/17 09:56:40;;;;;;;38.40;29.67;;;;;;;9.46;100.00;100073.75;4997582;28;20200;-78
2022/03/17 09:59:08;;;;;;;37.17;29.93;;;;;;;9.52;100.00;100075.25;4997122;28;20208;-78
2022/03/17 10:01:37;;;;;;;39.17;30.77;;;;;;;9.40;100.00;100070.50;4996858;28;20207;-78
2022/03/17 10:04:09;;;;;;;41.10;31.13;;;;;;;9.49;100.00;100080.69;5004610;28;20248;-78
2022/03/17 10:06:39;;;;;;;39.47;29.57;;;;;;;9.42;100.00;100084.50;4996554;28;20202;-79
2022/03/17 10:09:07;;;;;;;38.20;29.80;;;;;;;9.37;100.00;100086.50;5002271;28;20199;-79
2022/03/17 10:11:37;;;;;;;37.03;29.67;;;;;;;9.56;100.00;100090.06;5001854;28;20219;-79
2022/03/17 10:14:07;;;;;;;86.43;60.27;;;;;;;9.40;100.00;100095.16;4996576;28;20214;-79
2022/03/17 10:16:38;;;;;;;42.53;32.50;;;;;;;9.47;100.00;100095.75;4991155;28;20221;-79
2022/03/17 10:19:10;;;;;;;41.03;32.47;;;;;;;9.47;100.00;100106.34;4998328;28;20206;-78
2022/03/17 10:21:41;;;;;;;41.00;30.57;;;;;;;9.48;100.00;100108.06;5001975;28;20206;-78
2022/03/17 10:24:10;;;;;;;39.27;30.37;;;;;;;9.38;100.00;100107.59;4998018;28;20207;-78
2022/03/17 10:26:41;;;;;;;39.70;30.23;;;;;;;9.56;100.00;100110.38;4999714;28;20203;-78
2022/03/17 10:29:12;;;;;;;37.90;29.80;;;;;;;9.58;100.00;100119.94;5000727;28;20198;-78
2022/03/17 10:31:58;;;;;;;44.13;31.67;;;;;;;9.46;100.00;100115.19;4992528;28;20219;-79
2022/03/17 10:34:30;;;;;;;34.33;28.03;;;;;;;9.61;100.00;100111.84;5000392;28;20657;-78
2022/03/17 10:37:11;;;;;;;39.17;28.63;;;;;;;9.51;100.00;100121.13;4999038;28;20211;-79
2022/03/17 10:39:44;;;;;;;37.63;29.63;;;;;;;9.31;100.00;100129.06;5069053;28;20216;-78
2022/03/17 10:42:15;;;;;;;38.73;29.63;;;;;;;9.29;100.00;100139.72;5069349;28;20201;-79
2022/03/17 10:44:49;;;;;;;37.63;28.77;;;;;;;9.42;100.00;100138.25;5068261;28;20189;-79
2022/03/17 10:47:24;;;;;;;39.37;29.10;;;;;;;9.61;100.00;100140.09;5065566;28;20257;-78
2022/03/17 10:50:06;;;;;;;38.90;31.40;;;;;;;9.39;100.00;100150.75;5064465;28;20214;-78
2022/03/17 10:52:45;;;;;;;37.70;29.73;;;;;;;9.28;100.00;100161.81;5064377;28;20192;-78
2022/03/17 10:55:14;;;;;;;40.70;31.73;;;;;;;9.34;100.00;100166.81;5064356;28;20196;-78
2022/03/17 10:57:44;;;;;;;37.53;29.90;;;;;;;9.52;100.00;100157.22;5029123;28;20283;-78
2022/03/17 11:00:24;;;;;;;40.97;32.00;;;;;;;9.61;100.00;100156.81;5002090;28;20210;-78
2022/03/17 11:02:56;;;;;;;37.30;29.60;;;;;;;9.66;100.00;100176.00;5000666;28;20191;-79
2022/03/17 11:05:28;;;;;;;37.57;30.20;;;;;;;9.75;100.00;100180.03;4961347;28;20195;-79
2022/03/17 11:08:00;;;;;;;39.77;30.03;;;;;;;9.76;100.00;100179.09;4990485;28;20210;-78
2022/03/17 11:10:30;;;;;;;42.97;30.13;;;;;;;9.83;100.00;100182.31;4998101;28;20203;-78
2022/03/17 11:12:59;;;;;;;43.57;32.90;;;;;;;9.81;100.00;100189.47;5001448;28;20195;-79
2022/03/17 11:15:29;;;;;;;40.63;31.70;;;;;;;9.82;100.00;100199.13;4994581;28;20218;-79
2022/03/17 11:18:05;;;;;;;44.97;32.80;;;;;;;9.78;100.00;100198.41;5002212;28;20196;-79
2022/03/17 11:20:36;;;;;;;43.13;32.03;;;;;;;9.87;100.00;100198.00;5005557;28;20230;-78
2022/03/17 11:23:10;;;;;;;45.63;33.73;;;;;;;10.00;100.00;100203.59;5000318;28;20199;-79
2022/03/17 11:25:39;;;;;;;46.73;32.60;;;;;;;9.96;100.00;100202.03;4991059;28;20256;-79
2022/03/17 11:28:11;;;;;;;52.00;35.50;;;;;;;9.94;100.00;100204.75;4990662;28;20207;-79
2022/03/17 11:30:44;;;;;;;47.90;35.40;;;;;;;9.94;100.00;100214.47;5000826;28;20187;-79
2022/03/17 11:33:24;;;;;;;45.67;35.00;;;;;;;9.62;100.00;100216.72;5002842;28;20264;-79
2022/03/17 11:36:00;;;;;;;47.70;34.67;;;;;;;9.67;100.00;100216.56;4997796;28;20207;-79
2022/03/17 11:38:32;;;;;;;47.17;35.00;;;;;;;9.66;100.00;100225.41;4999432;28;20215;-78
2022/03/17 11:41:09;;;;;;;49.30;34.90;;;;;;;9.53;100.00;100227.69;5053106;28;20313;-78
2022/03/17 11:43:43;;;;;;;49.87;37.17;;;;;;;9.56;100.00;100235.53;5003308;28;20217;-78
2022/03/17 11:46:13;;;;;;;53.03;36.50;;;;;;;9.42;100.00;100224.66;5026803;28;20313;-78